sensor_id;sensor_type;location;lat;lon;timestamp;P1;durP1;ratioP1;P2;durP2;ratioP2
51216;SDS011;37283;49.760;8.648;2022-12-29T00:02:17;4.03;;;1.88;;
51216;SDS011;37283;49.760;8.648;2022-12-29T00:04:46;4.57;;;1.48;;
51216;SDS011;37283;49.760;8.648;2022-12-29T00:07:12;3.70;;;1.70;;
51216;SDS011;37283;49.760;8.648;2022-12-29T00:09:39;2.97;;;1.48;;
51216;SDS011;37283;49.760;8.648;2022-12-29T00:12:05;3.75;;;1.55;;
51216;SDS011;37283;49.760;8.648;2022-12-29T00:14:32;2.88;;;1.75;;
51216;SDS011;37283;49.760;8.648;2022-12-29T00:17:17;4.30;;;1.55;;
51216;SDS011;37283;49.760;8.648;2022-12-29T00:19:44;5.00;;;1.70;;
51216;SDS011;37283;49.760;8.648;2022-12-29T00:22:29;3.58;;;1.50;;
51216;SDS011;37283;49.760;8.648;2022-12-29T00:25:14;2.70;;;1.50;;
51216;SDS011;37283;49.760;8.648;2022-12-29T00:27:59;3.35;;;1.42;;
51216;SDS011;37283;49.760;8.648;2022-12-29T00:30:45;3.95;;;1.60;;
51216;SDS011;37283;49.760;8.648;2022-12-29T00:33:31;3.05;;;1.50;;
51216;SDS011;37283;49.760;8.648;2022-12-29T00:36:18;3.80;;;1.60;;
51216;SDS011;37283;49.760;8.648;2022-12-29T00:38:48;3.72;;;1.55;;
51216;SDS011;37283;49.760;8.648;2022-12-29T00:41:35;2.50;;;1.50;;
51216;SDS011;37283;49.760;8.648;2022-12-29T00:44:20;5.20;;;1.60;;
51216;SDS011;37283;49.760;8.648;2022-12-29T00:46:49;2.78;;;1.40;;
51216;SDS011;37283;49.760;8.648;2022-12-29T00:49:16;3.88;;;1.55;;
51216;SDS011;37283;49.760;8.648;2022-12-29T00:52:55;4.40;;;1.50;;
51216;SDS011;37283;49.760;8.648;2022-12-29T00:55:44;3.75;;;1.80;;
51216;SDS011;37283;49.760;8.648;2022-12-29T00:58:18;2.33;;;1.40;;
51216;SDS011;37283;49.760;8.648;2022-12-29T01:00:49;3.10;;;1.60;;
51216;SDS011;37283;49.760;8.648;2022-12-29T01:03:32;2.95;;;1.30;;
51216;SDS011;37283;49.760;8.648;2022-12-29T01:06:49;2.70;;;1.40;;
51216;SDS011;37283;49.760;8.648;2022-12-29T01:09:18;5.90;;;1.77;;
51216;SDS011;37283;49.760;8.648;2022-12-29T01:13:20;2.38;;;1.27;;
51216;SDS011;37283;49.760;8.648;2022-12-29T01:15:51;3.67;;;1.40;;
51216;SDS011;37283;49.760;8.648;2022-12-29T01:18:21;3.25;;;1.10;;
51216;SDS011;37283;49.760;8.648;2022-12-29T01:21:06;2.95;;;1.08;;
51216;SDS011;37283;49.760;8.648;2022-12-29T01:23:33;3.28;;;0.90;;
51216;SDS011;37283;49.760;8.648;2022-12-29T01:26:10;2.88;;;0.90;;
51216;SDS011;37283;49.760;8.648;2022-12-29T01:28:37;3.53;;;1.00;;
51216;SDS011;37283;49.760;8.648;2022-12-29T01:31:06;3.63;;;1.25;;
51216;SDS011;37283;49.760;8.648;2022-12-29T01:33:36;1.48;;;1.00;;
51216;SDS011;37283;49.760;8.648;2022-12-29T01:36:06;2.15;;;0.93;;
51216;SDS011;37283;49.760;8.648;2022-12-29T01:38:35;2.65;;;1.17;;
51216;SDS011;37283;49.760;8.648;2022-12-29T01:41:02;2.70;;;1.10;;
51216;SDS011;37283;49.760;8.648;2022-12-29T01:43:46;2.80;;;0.80;;
51216;SDS011;37283;49.760;8.648;2022-12-29T01:46:23;2.83;;;0.95;;
51216;SDS011;37283;49.760;8.648;2022-12-29T01:51:21;4.63;;;1.30;;
51216;SDS011;37283;49.760;8.648;2022-12-29T01:53:49;2.42;;;1.30;;
51216;SDS011;37283;49.760;8.648;2022-12-29T01:56:17;2.13;;;1.10;;
51216;SDS011;37283;49.760;8.648;2022-12-29T01:58:46;4.82;;;1.20;;
51216;SDS011;37283;49.760;8.648;2022-12-29T02:01:15;2.42;;;1.10;;
51216;SDS011;37283;49.760;8.648;2022-12-29T02:03:43;3.08;;;1.15;;
51216;SDS011;37283;49.760;8.648;2022-12-29T02:08:42;2.63;;;0.80;;
51216;SDS011;37283;49.760;8.648;2022-12-29T02:11:10;2.97;;;0.93;;
51216;SDS011;37283;49.760;8.648;2022-12-29T02:13:37;3.45;;;0.98;;
51216;SDS011;37283;49.760;8.648;2022-12-29T02:18:40;1.83;;;0.90;;
51216;SDS011;37283;49.760;8.648;2022-12-29T02:23:49;2.25;;;0.80;;
51216;SDS011;37283;49.760;8.648;2022-12-29T02:29:51;4.30;;;1.48;;
51216;SDS011;37283;49.760;8.648;2022-12-29T02:32:31;1.63;;;0.90;;
51216;SDS011;37283;49.760;8.648;2022-12-29T02:40:42;3.42;;;1.00;;
51216;SDS011;37283;49.760;8.648;2022-12-29T02:43:35;1.58;;;0.85;;
51216;SDS011;37283;49.760;8.648;2022-12-29T02:46:27;1.38;;;0.95;;
51216;SDS011;37283;49.760;8.648;2022-12-29T02:49:01;1.67;;;0.95;;
51216;SDS011;37283;49.760;8.648;2022-12-29T02:51:35;1.00;;;0.80;;
51216;SDS011;37283;49.760;8.648;2022-12-29T02:54:08;2.35;;;0.93;;
51216;SDS011;37283;49.760;8.648;2022-12-29T02:56:53;2.17;;;1.05;;
51216;SDS011;37283;49.760;8.648;2022-12-29T02:59:20;1.50;;;0.90;;
51216;SDS011;37283;49.760;8.648;2022-12-29T03:02:02;3.30;;;0.90;;
51216;SDS011;37283;49.760;8.648;2022-12-29T03:07:45;1.42;;;1.02;;
51216;SDS011;37283;49.760;8.648;2022-12-29T03:10:23;3.67;;;1.00;;
51216;SDS011;37283;49.760;8.648;2022-12-29T03:16:02;3.30;;;0.77;;
51216;SDS011;37283;49.760;8.648;2022-12-29T03:18:47;1.33;;;0.73;;
51216;SDS011;37283;49.760;8.648;2022-12-29T03:21:22;3.30;;;1.20;;
51216;SDS011;37283;49.760;8.648;2022-12-29T03:24:17;2.38;;;0.98;;
51216;SDS011;37283;49.760;8.648;2022-12-29T03:26:46;2.65;;;1.00;;
51216;SDS011;37283;49.760;8.648;2022-12-29T03:29:16;1.90;;;0.98;;
51216;SDS011;37283;49.760;8.648;2022-12-29T03:31:45;2.08;;;0.88;;
51216;SDS011;37283;49.760;8.648;2022-12-29T03:34:13;3.17;;;1.17;;
51216;SDS011;37283;49.760;8.648;2022-12-29T03:36:52;3.42;;;1.20;;
51216;SDS011;37283;49.760;8.648;2022-12-29T03:39:20;2.95;;;0.90;;
51216;SDS011;37283;49.760;8.648;2022-12-29T03:41:48;3.00;;;1.20;;
51216;SDS011;37283;49.760;8.648;2022-12-29T03:44:18;2.38;;;1.10;;
51216;SDS011;37283;49.760;8.648;2022-12-29T03:46:45;2.35;;;1.10;;
51216;SDS011;37283;49.760;8.648;2022-12-29T03:49:12;1.85;;;1.15;;
51216;SDS011;37283;49.760;8.648;2022-12-29T03:51:39;3.22;;;0.90;;
51216;SDS011;37283;49.760;8.648;2022-12-29T03:54:06;1.35;;;0.90;;
51216;SDS011;37283;49.760;8.648;2022-12-29T03:56:32;2.97;;;1.08;;
51216;SDS011;37283;49.760;8.648;2022-12-29T03:59:00;2.55;;;1.10;;
51216;SDS011;37283;49.760;8.648;2022-12-29T04:01:36;3.45;;;1.30;;
51216;SDS011;37283;49.760;8.648;2022-12-29T04:04:02;2.55;;;1.10;;
51216;SDS011;37283;49.760;8.648;2022-12-29T04:06:29;2.95;;;1.08;;
51216;SDS011;37283;49.760;8.648;2022-12-29T04:09:00;2.47;;;1.00;;
51216;SDS011;37283;49.760;8.648;2022-12-29T04:11:31;3.35;;;0.95;;
51216;SDS011;37283;49.760;8.648;2022-12-29T04:14:01;2.58;;;1.10;;
51216;SDS011;37283;49.760;8.648;2022-12-29T04:16:29;2.22;;;1.02;;
51216;SDS011;37283;49.760;8.648;2022-12-29T04:18:56;4.55;;;1.15;;
51216;SDS011;37283;49.760;8.648;2022-12-29T04:21:22;3.03;;;1.15;;
51216;SDS011;37283;49.760;8.648;2022-12-29T04:23:49;4.10;;;1.13;;
51216;SDS011;37283;49.760;8.648;2022-12-29T04:26:16;3.22;;;1.10;;
51216;SDS011;37283;49.760;8.648;2022-12-29T04:28:58;2.03;;;0.90;;
51216;SDS011;37283;49.760;8.648;2022-12-29T04:31:33;3.80;;;1.13;;
51216;SDS011;37283;49.760;8.648;2022-12-29T04:34:00;3.45;;;1.42;;
51216;SDS011;37283;49.760;8.648;2022-12-29T04:36:28;1.60;;;1.10;;
51216;SDS011;37283;49.760;8.648;2022-12-29T04:38:56;5.20;;;1.17;;
51216;SDS011;37283;49.760;8.648;2022-12-29T04:41:23;3.22;;;1.20;;
51216;SDS011;37283;49.760;8.648;2022-12-29T04:43:50;2.60;;;1.13;;
51216;SDS011;37283;49.760;8.648;2022-12-29T04:46:35;2.90;;;1.05;;
51216;SDS011;37283;49.760;8.648;2022-12-29T04:49:21;3.78;;;1.88;;
51216;SDS011;37283;49.760;8.648;2022-12-29T04:54:38;2.53;;;0.95;;
51216;SDS011;37283;49.760;8.648;2022-12-29T04:57:11;4.25;;;1.02;;
51216;SDS011;37283;49.760;8.648;2022-12-29T04:59:38;3.65;;;1.10;;
51216;SDS011;37283;49.760;8.648;2022-12-29T05:02:07;2.83;;;1.10;;
51216;SDS011;37283;49.760;8.648;2022-12-29T05:04:34;2.72;;;1.10;;
51216;SDS011;37283;49.760;8.648;2022-12-29T05:07:01;2.28;;;1.10;;
51216;SDS011;37283;49.760;8.648;2022-12-29T05:09:28;2.25;;;1.00;;
51216;SDS011;37283;49.760;8.648;2022-12-29T05:11:55;3.13;;;0.98;;
51216;SDS011;37283;49.760;8.648;2022-12-29T05:14:22;2.58;;;1.10;;
51216;SDS011;37283;49.760;8.648;2022-12-29T05:16:49;2.47;;;1.20;;
51216;SDS011;37283;49.760;8.648;2022-12-29T05:19:16;3.58;;;1.27;;
51216;SDS011;37283;49.760;8.648;2022-12-29T05:21:49;1.95;;;1.00;;
51216;SDS011;37283;49.760;8.648;2022-12-29T05:24:16;2.00;;;1.02;;
51216;SDS011;37283;49.760;8.648;2022-12-29T05:26:43;4.63;;;1.00;;
51216;SDS011;37283;49.760;8.648;2022-12-29T05:29:28;1.77;;;0.90;;
51216;SDS011;37283;49.760;8.648;2022-12-29T05:31:56;2.42;;;1.20;;
51216;SDS011;37283;49.760;8.648;2022-12-29T05:34:24;3.03;;;1.20;;
51216;SDS011;37283;49.760;8.648;2022-12-29T05:36:50;2.55;;;1.10;;
51216;SDS011;37283;49.760;8.648;2022-12-29T05:39:17;3.72;;;1.08;;
51216;SDS011;37283;49.760;8.648;2022-12-29T05:41:49;1.77;;;1.10;;
51216;SDS011;37283;49.760;8.648;2022-12-29T05:44:48;2.28;;;1.17;;
51216;SDS011;37283;49.760;8.648;2022-12-29T05:47:36;1.87;;;1.07;;
51216;SDS011;37283;49.760;8.648;2022-12-29T05:50:11;1.50;;;0.90;;
51216;SDS011;37283;49.760;8.648;2022-12-29T05:52:58;3.53;;;1.20;;
51216;SDS011;37283;49.760;8.648;2022-12-29T05:55:24;1.52;;;0.90;;
51216;SDS011;37283;49.760;8.648;2022-12-29T05:57:52;3.15;;;1.02;;
51216;SDS011;37283;49.760;8.648;2022-12-29T06:00:19;1.65;;;0.82;;
51216;SDS011;37283;49.760;8.648;2022-12-29T06:02:46;1.50;;;0.90;;
51216;SDS011;37283;49.760;8.648;2022-12-29T06:05:14;2.88;;;0.90;;
51216;SDS011;37283;49.760;8.648;2022-12-29T06:07:41;1.60;;;1.02;;
51216;SDS011;37283;49.760;8.648;2022-12-29T06:10:08;2.72;;;0.90;;
51216;SDS011;37283;49.760;8.648;2022-12-29T06:12:43;3.67;;;1.00;;
51216;SDS011;37283;49.760;8.648;2022-12-29T06:15:10;3.40;;;1.05;;
51216;SDS011;37283;49.760;8.648;2022-12-29T06:17:39;1.52;;;1.00;;
51216;SDS011;37283;49.760;8.648;2022-12-29T06:20:07;1.42;;;0.90;;
51216;SDS011;37283;49.760;8.648;2022-12-29T06:22:34;2.28;;;0.93;;
51216;SDS011;37283;49.760;8.648;2022-12-29T06:25:00;2.72;;;1.05;;
51216;SDS011;37283;49.760;8.648;2022-12-29T06:27:32;2.22;;;1.10;;
51216;SDS011;37283;49.760;8.648;2022-12-29T06:29:59;3.30;;;1.35;;
51216;SDS011;37283;49.760;8.648;2022-12-29T06:32:27;2.97;;;1.17;;
51216;SDS011;37283;49.760;8.648;2022-12-29T06:34:59;3.08;;;1.30;;
51216;SDS011;37283;49.760;8.648;2022-12-29T06:37:25;6.25;;;1.30;;
51216;SDS011;37283;49.760;8.648;2022-12-29T06:39:52;2.80;;;1.30;;
51216;SDS011;37283;49.760;8.648;2022-12-29T06:42:19;3.33;;;1.13;;
51216;SDS011;37283;49.760;8.648;2022-12-29T06:45:06;2.97;;;1.10;;
51216;SDS011;37283;49.760;8.648;2022-12-29T06:47:34;1.65;;;0.98;;
51216;SDS011;37283;49.760;8.648;2022-12-29T06:50:01;3.15;;;1.30;;
51216;SDS011;37283;49.760;8.648;2022-12-29T06:52:28;4.35;;;1.40;;
51216;SDS011;37283;49.760;8.648;2022-12-29T06:54:55;2.58;;;1.33;;
51216;SDS011;37283;49.760;8.648;2022-12-29T06:57:21;3.28;;;1.38;;
51216;SDS011;37283;49.760;8.648;2022-12-29T06:59:48;3.75;;;1.33;;
51216;SDS011;37283;49.760;8.648;2022-12-29T07:02:14;1.95;;;1.23;;
51216;SDS011;37283;49.760;8.648;2022-12-29T07:04:44;4.25;;;1.40;;
51216;SDS011;37283;49.760;8.648;2022-12-29T07:07:11;3.50;;;1.45;;
51216;SDS011;37283;49.760;8.648;2022-12-29T07:09:37;4.00;;;1.30;;
51216;SDS011;37283;49.760;8.648;2022-12-29T07:12:04;3.08;;;1.38;;
51216;SDS011;37283;49.760;8.648;2022-12-29T07:14:30;4.22;;;1.40;;
51216;SDS011;37283;49.760;8.648;2022-12-29T07:17:04;4.00;;;1.45;;
51216;SDS011;37283;49.760;8.648;2022-12-29T07:19:32;7.72;;;1.60;;
51216;SDS011;37283;49.760;8.648;2022-12-29T07:21:59;3.30;;;1.40;;
51216;SDS011;37283;49.760;8.648;2022-12-29T07:24:26;2.67;;;1.20;;
51216;SDS011;37283;49.760;8.648;2022-12-29T07:26:52;3.15;;;1.35;;
51216;SDS011;37283;49.760;8.648;2022-12-29T07:29:18;6.57;;;1.50;;
51216;SDS011;37283;49.760;8.648;2022-12-29T07:31:45;3.42;;;1.55;;
51216;SDS011;37283;49.760;8.648;2022-12-29T07:34:11;3.20;;;1.45;;
51216;SDS011;37283;49.760;8.648;2022-12-29T07:36:38;3.55;;;1.20;;
51216;SDS011;37283;49.760;8.648;2022-12-29T07:39:04;4.13;;;1.50;;
51216;SDS011;37283;49.760;8.648;2022-12-29T07:41:31;3.05;;;1.20;;
51216;SDS011;37283;49.760;8.648;2022-12-29T07:46:34;4.28;;;1.27;;
51216;SDS011;37283;49.760;8.648;2022-12-29T07:49:21;3.22;;;1.48;;
51216;SDS011;37283;49.760;8.648;2022-12-29T07:51:47;2.38;;;1.20;;
51216;SDS011;37283;49.760;8.648;2022-12-29T07:54:14;6.75;;;1.50;;
51216;SDS011;37283;49.760;8.648;2022-12-29T07:56:40;2.45;;;1.40;;
51216;SDS011;37283;49.760;8.648;2022-12-29T07:59:07;2.75;;;1.35;;
51216;SDS011;37283;49.760;8.648;2022-12-29T08:01:33;2.25;;;1.27;;
51216;SDS011;37283;49.760;8.648;2022-12-29T08:04:00;1.55;;;1.10;;
51216;SDS011;37283;49.760;8.648;2022-12-29T08:06:26;4.18;;;1.63;;
51216;SDS011;37283;49.760;8.648;2022-12-29T08:08:54;3.97;;;1.20;;
51216;SDS011;37283;49.760;8.648;2022-12-29T08:11:22;3.90;;;1.70;;
51216;SDS011;37283;49.760;8.648;2022-12-29T08:13:49;2.35;;;1.30;;
51216;SDS011;37283;49.760;8.648;2022-12-29T08:16:16;4.68;;;1.90;;
51216;SDS011;37283;49.760;8.648;2022-12-29T08:18:43;5.45;;;1.67;;
51216;SDS011;37283;49.760;8.648;2022-12-29T08:21:10;4.45;;;1.40;;
51216;SDS011;37283;49.760;8.648;2022-12-29T08:23:36;3.67;;;1.50;;
51216;SDS011;37283;49.760;8.648;2022-12-29T08:26:04;2.78;;;1.70;;
51216;SDS011;37283;49.760;8.648;2022-12-29T08:28:31;5.15;;;1.55;;
51216;SDS011;37283;49.760;8.648;2022-12-29T08:30:58;6.10;;;1.90;;
51216;SDS011;37283;49.760;8.648;2022-12-29T08:33:27;3.28;;;1.67;;
51216;SDS011;37283;49.760;8.648;2022-12-29T08:36:00;3.60;;;1.60;;
51216;SDS011;37283;49.760;8.648;2022-12-29T08:38:29;3.20;;;1.48;;
51216;SDS011;37283;49.760;8.648;2022-12-29T08:40:56;4.45;;;1.38;;
51216;SDS011;37283;49.760;8.648;2022-12-29T08:43:23;2.80;;;1.55;;
51216;SDS011;37283;49.760;8.648;2022-12-29T08:45:50;5.13;;;1.73;;
51216;SDS011;37283;49.760;8.648;2022-12-29T08:48:16;4.22;;;1.48;;
51216;SDS011;37283;49.760;8.648;2022-12-29T08:50:46;4.10;;;1.60;;
51216;SDS011;37283;49.760;8.648;2022-12-29T08:53:12;3.67;;;1.70;;
51216;SDS011;37283;49.760;8.648;2022-12-29T08:55:39;5.00;;;1.60;;
51216;SDS011;37283;49.760;8.648;2022-12-29T08:58:05;3.72;;;1.60;;
51216;SDS011;37283;49.760;8.648;2022-12-29T09:00:34;5.07;;;1.83;;
51216;SDS011;37283;49.760;8.648;2022-12-29T09:03:01;3.28;;;1.77;;
51216;SDS011;37283;49.760;8.648;2022-12-29T09:05:27;4.35;;;1.75;;
51216;SDS011;37283;49.760;8.648;2022-12-29T09:07:54;5.55;;;1.85;;
51216;SDS011;37283;49.760;8.648;2022-12-29T09:10:20;10.95;;;1.70;;
51216;SDS011;37283;49.760;8.648;2022-12-29T09:12:47;3.08;;;1.45;;
51216;SDS011;37283;49.760;8.648;2022-12-29T09:15:13;4.10;;;1.50;;
51216;SDS011;37283;49.760;8.648;2022-12-29T09:17:41;3.55;;;1.65;;
51216;SDS011;37283;49.760;8.648;2022-12-29T09:20:15;3.30;;;1.60;;
51216;SDS011;37283;49.760;8.648;2022-12-29T09:22:43;3.90;;;1.60;;
51216;SDS011;37283;49.760;8.648;2022-12-29T09:25:10;3.40;;;1.58;;
51216;SDS011;37283;49.760;8.648;2022-12-29T09:27:37;4.50;;;2.08;;
51216;SDS011;37283;49.760;8.648;2022-12-29T09:30:04;4.80;;;1.60;;
51216;SDS011;37283;49.760;8.648;2022-12-29T09:32:33;4.60;;;1.80;;
51216;SDS011;37283;49.760;8.648;2022-12-29T09:35:05;4.45;;;1.90;;
51216;SDS011;37283;49.760;8.648;2022-12-29T09:37:32;4.13;;;1.70;;
51216;SDS011;37283;49.760;8.648;2022-12-29T09:39:59;2.75;;;1.30;;
51216;SDS011;37283;49.760;8.648;2022-12-29T09:42:31;3.28;;;1.58;;
51216;SDS011;37283;49.760;8.648;2022-12-29T09:45:14;3.05;;;1.42;;
51216;SDS011;37283;49.760;8.648;2022-12-29T09:47:43;2.72;;;1.50;;
51216;SDS011;37283;49.760;8.648;2022-12-29T09:50:22;5.80;;;1.60;;
51216;SDS011;37283;49.760;8.648;2022-12-29T09:55:47;2.72;;;1.42;;
51216;SDS011;37283;49.760;8.648;2022-12-29T09:58:23;3.05;;;1.60;;
51216;SDS011;37283;49.760;8.648;2022-12-29T10:03:47;4.90;;;1.70;;
51216;SDS011;37283;49.760;8.648;2022-12-29T10:06:18;2.90;;;1.58;;
51216;SDS011;37283;49.760;8.648;2022-12-29T10:08:50;5.35;;;1.80;;
51216;SDS011;37283;49.760;8.648;2022-12-29T10:25:34;4.55;;;1.70;;
51216;SDS011;37283;49.760;8.648;2022-12-29T10:28:11;3.60;;;1.45;;
51216;SDS011;37283;49.760;8.648;2022-12-29T10:30:46;2.65;;;1.30;;
51216;SDS011;37283;49.760;8.648;2022-12-29T10:33:21;3.73;;;1.40;;
51216;SDS011;37283;49.760;8.648;2022-12-29T10:35:59;2.83;;;1.65;;
51216;SDS011;37283;49.760;8.648;2022-12-29T10:38:35;3.65;;;1.45;;
51216;SDS011;37283;49.760;8.648;2022-12-29T10:41:15;1.80;;;1.27;;
51216;SDS011;37283;49.760;8.648;2022-12-29T10:43:45;2.00;;;1.30;;
51216;SDS011;37283;49.760;8.648;2022-12-29T10:48:41;4.55;;;1.60;;
51216;SDS011;37283;49.760;8.648;2022-12-29T10:51:11;5.45;;;1.70;;
51216;SDS011;37283;49.760;8.648;2022-12-29T10:56:45;3.53;;;1.30;;
51216;SDS011;37283;49.760;8.648;2022-12-29T10:59:16;3.00;;;1.27;;
51216;SDS011;37283;49.760;8.648;2022-12-29T11:02:35;1.85;;;0.82;;
51216;SDS011;37283;49.760;8.648;2022-12-29T11:05:41;4.32;;;1.30;;
51216;SDS011;37283;49.760;8.648;2022-12-29T11:07:46;2.72;;;0.70;;
51216;SDS011;37283;49.760;8.648;2022-12-29T11:13:00;2.33;;;1.00;;
51216;SDS011;37283;49.760;8.648;2022-12-29T11:15:33;2.20;;;1.00;;
51216;SDS011;37283;49.760;8.648;2022-12-29T11:18:04;1.90;;;1.05;;
51216;SDS011;37283;49.760;8.648;2022-12-29T11:20:35;1.98;;;1.00;;
51216;SDS011;37283;49.760;8.648;2022-12-29T11:23:20;2.28;;;1.00;;
51216;SDS011;37283;49.760;8.648;2022-12-29T11:26:12;4.18;;;1.30;;
51216;SDS011;37283;49.760;8.648;2022-12-29T11:28:45;3.42;;;2.03;;
51216;SDS011;37283;49.760;8.648;2022-12-29T11:31:17;2.40;;;1.60;;
51216;SDS011;37283;49.760;8.648;2022-12-29T11:33:44;2.90;;;1.65;;
51216;SDS011;37283;49.760;8.648;2022-12-29T11:36:17;3.28;;;1.90;;
51216;SDS011;37283;49.760;8.648;2022-12-29T11:38:47;3.05;;;1.73;;
51216;SDS011;37283;49.760;8.648;2022-12-29T11:41:20;3.22;;;1.98;;
51216;SDS011;37283;49.760;8.648;2022-12-29T11:43:55;4.32;;;2.10;;
51216;SDS011;37283;49.760;8.648;2022-12-29T11:48:50;2.92;;;1.83;;
51216;SDS011;37283;49.760;8.648;2022-12-29T11:51:24;4.85;;;1.80;;
51216;SDS011;37283;49.760;8.648;2022-12-29T11:53:55;5.43;;;1.90;;
51216;SDS011;37283;49.760;8.648;2022-12-29T11:56:41;2.13;;;1.55;;
51216;SDS011;37283;49.760;8.648;2022-12-29T11:59:29;3.30;;;1.60;;
51216;SDS011;37283;49.760;8.648;2022-12-29T12:03:06;4.13;;;2.00;;
51216;SDS011;37283;49.760;8.648;2022-12-29T12:05:10;2.75;;;1.30;;
51216;SDS011;37283;49.760;8.648;2022-12-29T12:07:41;2.88;;;1.30;;
51216;SDS011;37283;49.760;8.648;2022-12-29T12:10:16;2.85;;;1.50;;
51216;SDS011;37283;49.760;8.648;2022-12-29T12:13:04;3.72;;;1.20;;
51216;SDS011;37283;49.760;8.648;2022-12-29T12:15:36;2.13;;;1.33;;
51216;SDS011;37283;49.760;8.648;2022-12-29T12:18:21;4.95;;;1.40;;
51216;SDS011;37283;49.760;8.648;2022-12-29T12:20:54;2.28;;;1.30;;
51216;SDS011;37283;49.760;8.648;2022-12-29T12:23:44;3.67;;;1.30;;
51216;SDS011;37283;49.760;8.648;2022-12-29T12:26:42;2.97;;;1.23;;
51216;SDS011;37283;49.760;8.648;2022-12-29T12:29:16;3.45;;;1.30;;
51216;SDS011;37283;49.760;8.648;2022-12-29T12:32:24;3.53;;;1.25;;
51216;SDS011;37283;49.760;8.648;2022-12-29T12:34:51;3.97;;;1.30;;
51216;SDS011;37283;49.760;8.648;2022-12-29T12:40:19;4.25;;;1.60;;
51216;SDS011;37283;49.760;8.648;2022-12-29T12:43:12;4.93;;;1.60;;
51216;SDS011;37283;49.760;8.648;2022-12-29T12:45:59;3.10;;;1.63;;
51216;SDS011;37283;49.760;8.648;2022-12-29T13:02:15;4.30;;;1.23;;
51216;SDS011;37283;49.760;8.648;2022-12-29T13:10:30;5.28;;;1.30;;
51216;SDS011;37283;49.760;8.648;2022-12-29T13:21:46;2.70;;;1.00;;
51216;SDS011;37283;49.760;8.648;2022-12-29T13:24:40;3.05;;;1.45;;
51216;SDS011;37283;49.760;8.648;2022-12-29T13:27:54;3.28;;;1.25;;
51216;SDS011;37283;49.760;8.648;2022-12-29T13:30:13;4.03;;;1.48;;
51216;SDS011;37283;49.760;8.648;2022-12-29T13:41:14;4.13;;;1.20;;
51216;SDS011;37283;49.760;8.648;2022-12-29T13:46:20;2.70;;;1.10;;
51216;SDS011;37283;49.760;8.648;2022-12-29T13:48:50;4.07;;;1.20;;
51216;SDS011;37283;49.760;8.648;2022-12-29T13:51:18;2.80;;;0.93;;
51216;SDS011;37283;49.760;8.648;2022-12-29T13:56:34;2.72;;;1.15;;
51216;SDS011;37283;49.760;8.648;2022-12-29T13:59:11;1.45;;;0.80;;
51216;SDS011;37283;49.760;8.648;2022-12-29T14:01:53;3.28;;;0.90;;
51216;SDS011;37283;49.760;8.648;2022-12-29T14:04:25;3.30;;;1.08;;
51216;SDS011;37283;49.760;8.648;2022-12-29T14:06:58;3.03;;;1.10;;
51216;SDS011;37283;49.760;8.648;2022-12-29T14:09:45;2.92;;;0.90;;
51216;SDS011;37283;49.760;8.648;2022-12-29T14:12:27;2.60;;;0.90;;
51216;SDS011;37283;49.760;8.648;2022-12-29T14:15:03;1.77;;;0.90;;
51216;SDS011;37283;49.760;8.648;2022-12-29T14:17:41;3.10;;;0.90;;
51216;SDS011;37283;49.760;8.648;2022-12-29T14:20:21;3.08;;;1.10;;
51216;SDS011;37283;49.760;8.648;2022-12-29T14:28:35;3.45;;;1.13;;
51216;SDS011;37283;49.760;8.648;2022-12-29T14:39:40;3.55;;;1.00;;
51216;SDS011;37283;49.760;8.648;2022-12-29T14:44:47;1.92;;;0.70;;
51216;SDS011;37283;49.760;8.648;2022-12-29T14:47:22;4.35;;;1.15;;
51216;SDS011;37283;49.760;8.648;2022-12-29T14:49:54;3.88;;;1.15;;
51216;SDS011;37283;49.760;8.648;2022-12-29T14:52:22;3.85;;;0.88;;
51216;SDS011;37283;49.760;8.648;2022-12-29T14:54:52;2.42;;;0.73;;
51216;SDS011;37283;49.760;8.648;2022-12-29T14:57:24;3.35;;;0.98;;
51216;SDS011;37283;49.760;8.648;2022-12-29T14:59:55;5.35;;;0.98;;
51216;SDS011;37283;49.760;8.648;2022-12-29T15:02:26;2.75;;;0.90;;
51216;SDS011;37283;49.760;8.648;2022-12-29T15:04:59;1.40;;;0.88;;
51216;SDS011;37283;49.760;8.648;2022-12-29T15:07:27;2.90;;;0.80;;
51216;SDS011;37283;49.760;8.648;2022-12-29T15:09:57;3.03;;;0.80;;
51216;SDS011;37283;49.760;8.648;2022-12-29T15:15:17;1.95;;;0.73;;
51216;SDS011;37283;49.760;8.648;2022-12-29T15:17:49;3.15;;;1.02;;
51216;SDS011;37283;49.760;8.648;2022-12-29T15:22:44;2.33;;;0.70;;
51216;SDS011;37283;49.760;8.648;2022-12-29T15:25:14;2.28;;;0.82;;
51216;SDS011;37283;49.760;8.648;2022-12-29T15:27:41;3.95;;;1.00;;
51216;SDS011;37283;49.760;8.648;2022-12-29T15:30:12;3.20;;;0.93;;
51216;SDS011;37283;49.760;8.648;2022-12-29T15:32:43;3.38;;;0.80;;
51216;SDS011;37283;49.760;8.648;2022-12-29T15:35:28;2.67;;;0.90;;
51216;SDS011;37283;49.760;8.648;2022-12-29T15:38:00;3.13;;;0.82;;
51216;SDS011;37283;49.760;8.648;2022-12-29T15:40:39;4.15;;;0.98;;
51216;SDS011;37283;49.760;8.648;2022-12-29T15:45:56;5.13;;;1.60;;
51216;SDS011;37283;49.760;8.648;2022-12-29T15:48:24;5.80;;;1.30;;
51216;SDS011;37283;49.760;8.648;2022-12-29T15:50:50;5.05;;;1.00;;
51216;SDS011;37283;49.760;8.648;2022-12-29T15:53:30;3.45;;;0.93;;
51216;SDS011;37283;49.760;8.648;2022-12-29T15:56:07;2.92;;;0.80;;
51216;SDS011;37283;49.760;8.648;2022-12-29T15:58:40;4.63;;;1.13;;
51216;SDS011;37283;49.760;8.648;2022-12-29T16:01:18;3.28;;;0.90;;
51216;SDS011;37283;49.760;8.648;2022-12-29T16:03:53;3.72;;;1.20;;
51216;SDS011;37283;49.760;8.648;2022-12-29T16:08:58;3.08;;;1.13;;
51216;SDS011;37283;49.760;8.648;2022-12-29T16:11:28;3.35;;;1.00;;
51216;SDS011;37283;49.760;8.648;2022-12-29T16:13:58;3.13;;;1.10;;
51216;SDS011;37283;49.760;8.648;2022-12-29T16:16:26;4.82;;;0.82;;
51216;SDS011;37283;49.760;8.648;2022-12-29T16:19:21;4.57;;;0.90;;
51216;SDS011;37283;49.760;8.648;2022-12-29T16:21:58;4.60;;;1.05;;
51216;SDS011;37283;49.760;8.648;2022-12-29T16:24:25;6.93;;;1.10;;
51216;SDS011;37283;49.760;8.648;2022-12-29T16:27:06;3.67;;;0.90;;
51216;SDS011;37283;49.760;8.648;2022-12-29T16:29:52;5.45;;;1.13;;
51216;SDS011;37283;49.760;8.648;2022-12-29T16:32:24;5.50;;;1.20;;
51216;SDS011;37283;49.760;8.648;2022-12-29T16:37:38;4.30;;;1.05;;
51216;SDS011;37283;49.760;8.648;2022-12-29T16:50:31;3.08;;;0.93;;
51216;SDS011;37283;49.760;8.648;2022-12-29T16:52:59;6.45;;;1.30;;
51216;SDS011;37283;49.760;8.648;2022-12-29T16:55:26;5.15;;;1.10;;
51216;SDS011;37283;49.760;8.648;2022-12-29T16:57:53;4.63;;;1.20;;
51216;SDS011;37283;49.760;8.648;2022-12-29T17:00:25;7.22;;;1.52;;
51216;SDS011;37283;49.760;8.648;2022-12-29T17:02:54;5.68;;;1.20;;
51216;SDS011;37283;49.760;8.648;2022-12-29T17:05:22;6.95;;;1.67;;
51216;SDS011;37283;49.760;8.648;2022-12-29T17:07:49;6.80;;;1.23;;
51216;SDS011;37283;49.760;8.648;2022-12-29T17:10:17;4.50;;;1.50;;
51216;SDS011;37283;49.760;8.648;2022-12-29T17:12:44;9.40;;;1.38;;
51216;SDS011;37283;49.760;8.648;2022-12-29T17:15:25;5.70;;;1.30;;
51216;SDS011;37283;49.760;8.648;2022-12-29T17:17:54;6.68;;;1.45;;
51216;SDS011;37283;49.760;8.648;2022-12-29T17:20:22;3.60;;;1.30;;
51216;SDS011;37283;49.760;8.648;2022-12-29T17:22:50;5.38;;;1.20;;
51216;SDS011;37283;49.760;8.648;2022-12-29T17:27:51;5.53;;;1.35;;
51216;SDS011;37283;49.760;8.648;2022-12-29T17:30:24;3.45;;;1.30;;
51216;SDS011;37283;49.760;8.648;2022-12-29T17:33:03;5.45;;;1.40;;
51216;SDS011;37283;49.760;8.648;2022-12-29T17:35:31;5.90;;;1.83;;
51216;SDS011;37283;49.760;8.648;2022-12-29T17:37:57;5.97;;;2.05;;
51216;SDS011;37283;49.760;8.648;2022-12-29T17:40:27;6.18;;;1.70;;
51216;SDS011;37283;49.760;8.648;2022-12-29T17:42:55;4.88;;;1.27;;
51216;SDS011;37283;49.760;8.648;2022-12-29T17:45:26;7.82;;;1.55;;
51216;SDS011;37283;49.760;8.648;2022-12-29T17:47:54;4.90;;;1.27;;
51216;SDS011;37283;49.760;8.648;2022-12-29T17:50:22;5.75;;;1.80;;
51216;SDS011;37283;49.760;8.648;2022-12-29T17:52:57;6.88;;;2.13;;